Snohomish, WA (98290)

6:12 PM PST on December 26, 2014 (GMT -0800)
Meadow Ridge, Snohomish, WA. | Change Station
CLOSE
Current Station
Personal Weather Station
Location: Snohomish, WA
Elevation: 623 ft
Nearby Weather Stations

Elev 623 ft 47.92 °N, 121.98 °W | Updated 5 minutes ago

Overcast
Overcast
37.3 °F
Feels Like 37 °F
N
0.0
Wind Variable Wind from ENE
Gusts 0.0 mph

Today
High -- | Low -- °F
--% Chance of Precip.
Yesterday
High -- | Low -- °F
Precip. -- in
7:56 AM 4:20 PM
Waxing Crescent, 31% visible
Pressure 30.35 in
Visibility 8.0 miles
Clouds Few 400 ft
Scattered Clouds 4500 ft
Overcast 6000 ft
Windchill 37 °F
Dew Point 37 °F
Humidity 97%
Rainfall 0.00 in
Snow Depth Not available.
UV 0 out of 12
Pollen 1.40 out of 12
Air Quality Not available.
Flu Activity Not available.
METAR KPAE 270153Z 18006KT 8SM FEW004 SCT045 OVC060 04/03 A3033 RMK AO2 SLP277 T00440028

More Conditions Fewer Conditions

Pressure 30.35 in
Visibility 8.0 miles
Clouds Few 400 ft
Scattered Clouds 4500 ft
Overcast 6000 ft
Windchill 37 °F
Dew Point 37 °F
Humidity 97%
Rainfall 0.00 in
Snow Depth Not available.
UV 0 out of 12
Pollen 1.40 out of 12
Air Quality Not available.
Flu Activity Not available.
METAR KPAE 270153Z 18006KT 8SM FEW004 SCT045 OVC060 04/03 A3033 RMK AO2 SLP277 T00440028

More Conditions Fewer Conditions

10-Day Weather Forecast

Almanac

Astronomy

Dec. 26, 2014 Rise Set
Actual Time
Civil Twilight
Nautical Twilight
Astronomical Twilight
Moon
Length of Visible Light
Length of Day
Tomorrow will be .
, % of the Moon is Illuminated

Today's Extremes

State Highs State Lows

Community

WunderPhotos

Upload Photos

1,780,811 photos uploaded!

WunderBlogs® & News

Nearby

Air Quality

  Air Quality AQ Index Pollutant
Not available.

Snow Depth

Station Depth Elevation

Earthquake Activity

City Distance Mag. Time & Date
Minimum magnitude displayed is 2.5.

Coastal Water Temperatures

Place Temperature

Nearby Weather Stations